sensor_id;sensor_type;location;lat;lon;timestamp;temperature;humidity
39957;DHT22;48483;44.640;7.494;2023-05-19T00:00:56;14.00;99.90
39957;DHT22;48483;44.640;7.494;2023-05-19T00:03:24;14.00;99.90
39957;DHT22;48483;44.640;7.494;2023-05-19T00:05:52;13.90;99.90
39957;DHT22;48483;44.640;7.494;2023-05-19T00:08:19;13.90;99.90
39957;DHT22;48483;44.640;7.494;2023-05-19T00:10:48;13.90;99.90
39957;DHT22;48483;44.640;7.494;2023-05-19T00:13:15;13.90;99.90
39957;DHT22;48483;44.640;7.494;2023-05-19T00:15:42;13.90;99.90
39957;DHT22;48483;44.640;7.494;2023-05-19T00:18:09;13.80;99.90
39957;DHT22;48483;44.640;7.494;2023-05-19T00:20:39;13.80;99.90
39957;DHT22;48483;44.640;7.494;2023-05-19T00:23:05;13.80;99.90
39957;DHT22;48483;44.640;7.494;2023-05-19T00:25:32;13.80;99.90
39957;DHT22;48483;44.640;7.494;2023-05-19T00:27:58;13.70;99.90
39957;DHT22;48483;44.640;7.494;2023-05-19T00:30:25;13.70;99.90
39957;DHT22;48483;44.640;7.494;2023-05-19T00:32:52;13.70;99.90
39957;DHT22;48483;44.640;7.494;2023-05-19T00:35:20;13.60;99.90
39957;DHT22;48483;44.640;7.494;2023-05-19T00:37:48;13.60;99.90
39957;DHT22;48483;44.640;7.494;2023-05-19T00:40:15;13.60;99.90
39957;DHT22;48483;44.640;7.494;2023-05-19T00:42:41;13.60;99.90
39957;DHT22;48483;44.640;7.494;2023-05-19T00:45:08;13.60;99.90
39957;DHT22;48483;44.640;7.494;2023-05-19T00:47:35;13.60;99.90
39957;DHT22;48483;44.640;7.494;2023-05-19T00:50:02;13.50;99.90
39957;DHT22;48483;44.640;7.494;2023-05-19T00:52:29;13.50;99.90
39957;DHT22;48483;44.640;7.494;2023-05-19T00:54:56;13.60;99.90
39957;DHT22;48483;44.640;7.494;2023-05-19T00:57:23;13.60;99.90
39957;DHT22;48483;44.640;7.494;2023-05-19T00:59:49;13.60;99.90
39957;DHT22;48483;44.640;7.494;2023-05-19T01:02:16;13.60;99.90
39957;DHT22;48483;44.640;7.494;2023-05-19T01:04:44;13.50;99.90
39957;DHT22;48483;44.640;7.494;2023-05-19T01:07:10;13.50;99.90
39957;DHT22;48483;44.640;7.494;2023-05-19T01:09:39;13.50;99.90
39957;DHT22;48483;44.640;7.494;2023-05-19T01:12:08;13.50;99.90
39957;DHT22;48483;44.640;7.494;2023-05-19T01:14:35;13.50;99.90
39957;DHT22;48483;44.640;7.494;2023-05-19T01:17:05;13.60;99.90
39957;DHT22;48483;44.640;7.494;2023-05-19T01:19:55;13.60;99.90
39957;DHT22;48483;44.640;7.494;2023-05-19T01:22:46;13.60;99.90
39957;DHT22;48483;44.640;7.494;2023-05-19T01:25:35;13.60;99.90
39957;DHT22;48483;44.640;7.494;2023-05-19T01:28:19;13.60;99.90
39957;DHT22;48483;44.640;7.494;2023-05-19T01:30:53;13.60;99.90
39957;DHT22;48483;44.640;7.494;2023-05-19T01:33:22;13.60;99.90
39957;DHT22;48483;44.640;7.494;2023-05-19T01:35:50;13.60;99.90
39957;DHT22;48483;44.640;7.494;2023-05-19T01:38:18;13.60;99.90
39957;DHT22;48483;44.640;7.494;2023-05-19T01:40:46;13.50;99.90
39957;DHT22;48483;44.640;7.494;2023-05-19T01:43:16;13.60;99.90
39957;DHT22;48483;44.640;7.494;2023-05-19T01:45:43;13.60;99.90
39957;DHT22;48483;44.640;7.494;2023-05-19T01:48:12;13.60;99.90
39957;DHT22;48483;44.640;7.494;2023-05-19T01:50:39;13.60;99.90
39957;DHT22;48483;44.640;7.494;2023-05-19T01:53:06;13.60;99.90
39957;DHT22;48483;44.640;7.494;2023-05-19T01:55:35;13.60;99.90
39957;DHT22;48483;44.640;7.494;2023-05-19T01:58:10;13.60;99.90
39957;DHT22;48483;44.640;7.494;2023-05-19T02:00:50;13.60;99.90
39957;DHT22;48483;44.640;7.494;2023-05-19T02:03:31;13.60;99.90
39957;DHT22;48483;44.640;7.494;2023-05-19T02:06:05;13.70;99.90
39957;DHT22;48483;44.640;7.494;2023-05-19T02:08:41;13.60;99.90
39957;DHT22;48483;44.640;7.494;2023-05-19T02:11:13;13.60;99.90
39957;DHT22;48483;44.640;7.494;2023-05-19T02:13:43;13.60;99.90
39957;DHT22;48483;44.640;7.494;2023-05-19T02:16:12;13.60;99.90
39957;DHT22;48483;44.640;7.494;2023-05-19T02:18:41;13.60;99.90
39957;DHT22;48483;44.640;7.494;2023-05-19T02:21:10;13.60;99.90
39957;DHT22;48483;44.640;7.494;2023-05-19T02:23:39;13.60;99.90
39957;DHT22;48483;44.640;7.494;2023-05-19T02:26:06;13.50;99.90
39957;DHT22;48483;44.640;7.494;2023-05-19T02:28:34;13.60;99.90
39957;DHT22;48483;44.640;7.494;2023-05-19T02:31:02;13.60;99.90
39957;DHT22;48483;44.640;7.494;2023-05-19T02:33:30;13.50;99.90
39957;DHT22;48483;44.640;7.494;2023-05-19T02:35:58;13.50;99.90
39957;DHT22;48483;44.640;7.494;2023-05-19T02:38:24;13.50;99.90
39957;DHT22;48483;44.640;7.494;2023-05-19T02:40:52;13.50;99.90
39957;DHT22;48483;44.640;7.494;2023-05-19T02:43:19;13.50;99.90
39957;DHT22;48483;44.640;7.494;2023-05-19T02:45:45;13.50;99.90
39957;DHT22;48483;44.640;7.494;2023-05-19T02:48:12;13.50;99.90
39957;DHT22;48483;44.640;7.494;2023-05-19T02:50:38;13.50;99.90
39957;DHT22;48483;44.640;7.494;2023-05-19T02:53:06;13.50;99.90
39957;DHT22;48483;44.640;7.494;2023-05-19T02:55:33;13.50;99.90
39957;DHT22;48483;44.640;7.494;2023-05-19T02:57:59;13.50;99.90
39957;DHT22;48483;44.640;7.494;2023-05-19T03:00:26;13.50;99.90
39957;DHT22;48483;44.640;7.494;2023-05-19T03:02:52;13.50;99.90
39957;DHT22;48483;44.640;7.494;2023-05-19T03:05:19;13.40;99.90
39957;DHT22;48483;44.640;7.494;2023-05-19T03:07:46;13.40;99.90
39957;DHT22;48483;44.640;7.494;2023-05-19T03:10:14;13.40;99.90
39957;DHT22;48483;44.640;7.494;2023-05-19T03:12:41;13.30;99.90
39957;DHT22;48483;44.640;7.494;2023-05-19T03:15:08;13.40;99.90
39957;DHT22;48483;44.640;7.494;2023-05-19T03:17:34;13.30;99.90
39957;DHT22;48483;44.640;7.494;2023-05-19T03:20:01;13.30;99.90
39957;DHT22;48483;44.640;7.494;2023-05-19T03:22:28;13.30;99.90
39957;DHT22;48483;44.640;7.494;2023-05-19T03:24:55;13.30;99.90
39957;DHT22;48483;44.640;7.494;2023-05-19T03:27:25;13.30;99.90
39957;DHT22;48483;44.640;7.494;2023-05-19T03:29:51;13.20;99.90
39957;DHT22;48483;44.640;7.494;2023-05-19T03:32:19;13.30;99.90
39957;DHT22;48483;44.640;7.494;2023-05-19T03:34:46;13.20;99.90
39957;DHT22;48483;44.640;7.494;2023-05-19T03:37:12;13.20;99.90
39957;DHT22;48483;44.640;7.494;2023-05-19T03:39:40;13.20;99.90
39957;DHT22;48483;44.640;7.494;2023-05-19T03:42:06;13.20;99.90
39957;DHT22;48483;44.640;7.494;2023-05-19T03:44:35;13.10;99.90
39957;DHT22;48483;44.640;7.494;2023-05-19T03:47:02;13.00;99.90
39957;DHT22;48483;44.640;7.494;2023-05-19T03:49:47;13.00;99.90
39957;DHT22;48483;44.640;7.494;2023-05-19T03:52:14;13.10;99.90
39957;DHT22;48483;44.640;7.494;2023-05-19T03:55:07;13.10;99.90
39957;DHT22;48483;44.640;7.494;2023-05-19T03:57:34;13.00;99.90
39957;DHT22;48483;44.640;7.494;2023-05-19T04:00:02;13.00;99.90
39957;DHT22;48483;44.640;7.494;2023-05-19T04:02:38;13.10;99.90
39957;DHT22;48483;44.640;7.494;2023-05-19T04:05:07;13.10;99.90
39957;DHT22;48483;44.640;7.494;2023-05-19T04:07:34;13.00;99.90
39957;DHT22;48483;44.640;7.494;2023-05-19T04:10:03;13.00;99.90
39957;DHT22;48483;44.640;7.494;2023-05-19T04:12:30;13.00;99.90
39957;DHT22;48483;44.640;7.494;2023-05-19T04:14:57;13.00;99.90
39957;DHT22;48483;44.640;7.494;2023-05-19T04:17:25;13.00;99.90
39957;DHT22;48483;44.640;7.494;2023-05-19T04:19:54;13.00;99.90
39957;DHT22;48483;44.640;7.494;2023-05-19T04:22:21;13.00;99.90
39957;DHT22;48483;44.640;7.494;2023-05-19T04:24:48;13.00;99.90
39957;DHT22;48483;44.640;7.494;2023-05-19T04:27:17;13.00;99.90
39957;DHT22;48483;44.640;7.494;2023-05-19T04:29:44;13.00;99.90
39957;DHT22;48483;44.640;7.494;2023-05-19T04:32:13;12.90;99.90
39957;DHT22;48483;44.640;7.494;2023-05-19T04:34:44;12.90;99.90
39957;DHT22;48483;44.640;7.494;2023-05-19T04:37:13;12.90;99.90
39957;DHT22;48483;44.640;7.494;2023-05-19T04:39:41;12.90;99.90
39957;DHT22;48483;44.640;7.494;2023-05-19T04:42:09;12.90;99.90
39957;DHT22;48483;44.640;7.494;2023-05-19T04:44:37;12.90;99.90
39957;DHT22;48483;44.640;7.494;2023-05-19T04:47:06;12.80;99.90
39957;DHT22;48483;44.640;7.494;2023-05-19T04:49:34;12.90;99.90
39957;DHT22;48483;44.640;7.494;2023-05-19T04:52:09;12.90;99.90
39957;DHT22;48483;44.640;7.494;2023-05-19T04:54:36;12.90;99.90
39957;DHT22;48483;44.640;7.494;2023-05-19T04:57:04;12.90;99.90
39957;DHT22;48483;44.640;7.494;2023-05-19T04:59:34;12.80;99.90
39957;DHT22;48483;44.640;7.494;2023-05-19T05:02:01;12.80;99.90
39957;DHT22;48483;44.640;7.494;2023-05-19T05:04:30;12.80;99.90
39957;DHT22;48483;44.640;7.494;2023-05-19T05:06:56;12.80;99.90
39957;DHT22;48483;44.640;7.494;2023-05-19T05:09:25;12.70;99.90
39957;DHT22;48483;44.640;7.494;2023-05-19T05:11:53;12.80;99.90
39957;DHT22;48483;44.640;7.494;2023-05-19T05:14:20;12.70;99.90
39957;DHT22;48483;44.640;7.494;2023-05-19T05:16:48;12.80;99.90
39957;DHT22;48483;44.640;7.494;2023-05-19T05:19:20;12.80;99.90
39957;DHT22;48483;44.640;7.494;2023-05-19T05:21:48;12.80;99.90
39957;DHT22;48483;44.640;7.494;2023-05-19T05:24:16;12.80;99.90
39957;DHT22;48483;44.640;7.494;2023-05-19T05:26:49;12.80;99.90
39957;DHT22;48483;44.640;7.494;2023-05-19T05:29:16;12.80;99.90
39957;DHT22;48483;44.640;7.494;2023-05-19T05:31:43;12.80;99.90
39957;DHT22;48483;44.640;7.494;2023-05-19T05:34:10;12.80;99.90
39957;DHT22;48483;44.640;7.494;2023-05-19T05:36:37;12.80;99.90
39957;DHT22;48483;44.640;7.494;2023-05-19T05:39:03;12.80;99.90
39957;DHT22;48483;44.640;7.494;2023-05-19T05:41:31;12.70;99.90
39957;DHT22;48483;44.640;7.494;2023-05-19T05:44:05;12.70;99.90
39957;DHT22;48483;44.640;7.494;2023-05-19T05:46:32;12.70;99.90
39957;DHT22;48483;44.640;7.494;2023-05-19T05:48:59;12.70;99.90
39957;DHT22;48483;44.640;7.494;2023-05-19T05:51:26;12.70;99.90
39957;DHT22;48483;44.640;7.494;2023-05-19T05:53:54;12.70;99.90
39957;DHT22;48483;44.640;7.494;2023-05-19T05:56:26;12.70;99.90
39957;DHT22;48483;44.640;7.494;2023-05-19T05:58:53;12.70;99.90
39957;DHT22;48483;44.640;7.494;2023-05-19T06:01:22;12.70;99.90
39957;DHT22;48483;44.640;7.494;2023-05-19T06:03:49;12.80;99.90
39957;DHT22;48483;44.640;7.494;2023-05-19T06:06:20;12.80;99.90
39957;DHT22;48483;44.640;7.494;2023-05-19T06:08:47;12.70;99.90
39957;DHT22;48483;44.640;7.494;2023-05-19T06:11:13;12.70;99.90
39957;DHT22;48483;44.640;7.494;2023-05-19T06:13:41;12.70;99.90
39957;DHT22;48483;44.640;7.494;2023-05-19T06:16:10;12.80;99.90
39957;DHT22;48483;44.640;7.494;2023-05-19T06:18:42;12.80;99.90
39957;DHT22;48483;44.640;7.494;2023-05-19T06:21:09;12.70;99.90
39957;DHT22;48483;44.640;7.494;2023-05-19T06:23:36;12.60;99.90
39957;DHT22;48483;44.640;7.494;2023-05-19T06:26:04;12.70;99.90
39957;DHT22;48483;44.640;7.494;2023-05-19T06:28:31;12.70;99.90
39957;DHT22;48483;44.640;7.494;2023-05-19T06:30:58;12.80;99.90
39957;DHT22;48483;44.640;7.494;2023-05-19T06:33:42;12.80;99.90
39957;DHT22;48483;44.640;7.494;2023-05-19T06:36:08;12.80;99.90
39957;DHT22;48483;44.640;7.494;2023-05-19T06:38:37;12.80;99.90
39957;DHT22;48483;44.640;7.494;2023-05-19T06:41:04;12.80;99.90
39957;DHT22;48483;44.640;7.494;2023-05-19T06:43:30;12.80;99.90
39957;DHT22;48483;44.640;7.494;2023-05-19T06:46:02;12.90;99.90
39957;DHT22;48483;44.640;7.494;2023-05-19T06:48:31;12.80;99.90
39957;DHT22;48483;44.640;7.494;2023-05-19T06:51:00;12.80;99.90
39957;DHT22;48483;44.640;7.494;2023-05-19T06:53:27;12.90;99.90
39957;DHT22;48483;44.640;7.494;2023-05-19T06:55:54;12.80;99.90
39957;DHT22;48483;44.640;7.494;2023-05-19T06:58:23;12.90;99.90
39957;DHT22;48483;44.640;7.494;2023-05-19T07:00:50;12.80;99.90
39957;DHT22;48483;44.640;7.494;2023-05-19T07:03:17;12.90;99.90
39957;DHT22;48483;44.640;7.494;2023-05-19T07:05:43;12.90;99.90
39957;DHT22;48483;44.640;7.494;2023-05-19T07:08:11;12.90;99.90
39957;DHT22;48483;44.640;7.494;2023-05-19T07:10:39;12.90;99.90
39957;DHT22;48483;44.640;7.494;2023-05-19T07:13:09;12.90;99.90
39957;DHT22;48483;44.640;7.494;2023-05-19T07:15:36;12.90;99.90
39957;DHT22;48483;44.640;7.494;2023-05-19T07:18:03;12.90;99.90
39957;DHT22;48483;44.640;7.494;2023-05-19T07:20:30;12.90;99.90
39957;DHT22;48483;44.640;7.494;2023-05-19T07:22:57;13.00;99.90
39957;DHT22;48483;44.640;7.494;2023-05-19T07:25:25;13.00;99.90
39957;DHT22;48483;44.640;7.494;2023-05-19T07:27:54;13.00;99.90
39957;DHT22;48483;44.640;7.494;2023-05-19T07:30:21;13.00;99.90
39957;DHT22;48483;44.640;7.494;2023-05-19T07:32:47;13.00;99.90
39957;DHT22;48483;44.640;7.494;2023-05-19T07:35:14;13.00;99.90
39957;DHT22;48483;44.640;7.494;2023-05-19T07:37:40;13.10;99.90
39957;DHT22;48483;44.640;7.494;2023-05-19T07:40:08;13.00;99.90
39957;DHT22;48483;44.640;7.494;2023-05-19T07:42:35;13.00;99.90
39957;DHT22;48483;44.640;7.494;2023-05-19T07:45:02;13.00;99.90
39957;DHT22;48483;44.640;7.494;2023-05-19T07:47:30;13.20;99.90
39957;DHT22;48483;44.640;7.494;2023-05-19T07:49:56;13.10;99.90
39957;DHT22;48483;44.640;7.494;2023-05-19T07:52:23;13.20;99.90
39957;DHT22;48483;44.640;7.494;2023-05-19T07:54:49;13.20;99.90
39957;DHT22;48483;44.640;7.494;2023-05-19T07:57:16;13.20;99.90
39957;DHT22;48483;44.640;7.494;2023-05-19T07:59:45;13.20;99.90
39957;DHT22;48483;44.640;7.494;2023-05-19T08:02:12;13.20;99.90
39957;DHT22;48483;44.640;7.494;2023-05-19T08:04:38;13.10;99.90
39957;DHT22;48483;44.640;7.494;2023-05-19T08:07:05;13.10;99.90
39957;DHT22;48483;44.640;7.494;2023-05-19T08:09:31;13.10;99.90
39957;DHT22;48483;44.640;7.494;2023-05-19T08:11:58;13.10;99.90
39957;DHT22;48483;44.640;7.494;2023-05-19T08:14:26;13.10;99.90
39957;DHT22;48483;44.640;7.494;2023-05-19T08:16:56;13.20;99.90
39957;DHT22;48483;44.640;7.494;2023-05-19T08:19:22;13.10;99.90
39957;DHT22;48483;44.640;7.494;2023-05-19T08:21:48;13.10;99.90
39957;DHT22;48483;44.640;7.494;2023-05-19T08:24:15;13.10;99.90
39957;DHT22;48483;44.640;7.494;2023-05-19T08:26:42;13.10;99.90
39957;DHT22;48483;44.640;7.494;2023-05-19T08:29:09;13.10;99.90
39957;DHT22;48483;44.640;7.494;2023-05-19T08:31:35;13.10;99.90
39957;DHT22;48483;44.640;7.494;2023-05-19T08:34:03;13.10;99.90
39957;DHT22;48483;44.640;7.494;2023-05-19T08:36:30;13.10;99.90
39957;DHT22;48483;44.640;7.494;2023-05-19T08:38:56;13.10;99.90
39957;DHT22;48483;44.640;7.494;2023-05-19T08:41:23;13.00;99.90
39957;DHT22;48483;44.640;7.494;2023-05-19T08:43:50;13.10;99.90
39957;DHT22;48483;44.640;7.494;2023-05-19T08:46:16;13.10;99.90
39957;DHT22;48483;44.640;7.494;2023-05-19T08:48:43;13.10;99.90
39957;DHT22;48483;44.640;7.494;2023-05-19T08:51:21;13.20;99.90
39957;DHT22;48483;44.640;7.494;2023-05-19T08:53:50;13.10;99.90
39957;DHT22;48483;44.640;7.494;2023-05-19T08:56:20;13.10;99.90
39957;DHT22;48483;44.640;7.494;2023-05-19T08:58:49;13.10;99.90
39957;DHT22;48483;44.640;7.494;2023-05-19T09:01:17;13.20;99.90
39957;DHT22;48483;44.640;7.494;2023-05-19T09:03:46;13.10;99.90
39957;DHT22;48483;44.640;7.494;2023-05-19T09:06:15;13.10;99.90
39957;DHT22;48483;44.640;7.494;2023-05-19T09:08:43;13.20;99.90
39957;DHT22;48483;44.640;7.494;2023-05-19T09:11:10;13.10;99.90
39957;DHT22;48483;44.640;7.494;2023-05-19T09:13:37;13.10;99.90
39957;DHT22;48483;44.640;7.494;2023-05-19T09:16:04;13.10;99.90
39957;DHT22;48483;44.640;7.494;2023-05-19T09:18:31;13.10;99.90
39957;DHT22;48483;44.640;7.494;2023-05-19T09:20:59;13.10;99.90
39957;DHT22;48483;44.640;7.494;2023-05-19T09:23:28;13.10;99.90
39957;DHT22;48483;44.640;7.494;2023-05-19T09:25:55;13.10;99.90
39957;DHT22;48483;44.640;7.494;2023-05-19T09:28:23;13.10;99.90
39957;DHT22;48483;44.640;7.494;2023-05-19T09:31:01;13.10;99.90
39957;DHT22;48483;44.640;7.494;2023-05-19T09:33:28;13.00;99.90
39957;DHT22;48483;44.640;7.494;2023-05-19T09:35:55;13.10;99.90
39957;DHT22;48483;44.640;7.494;2023-05-19T09:38:23;13.10;99.90
39957;DHT22;48483;44.640;7.494;2023-05-19T09:40:51;13.10;99.90
39957;DHT22;48483;44.640;7.494;2023-05-19T09:43:18;13.10;99.90
39957;DHT22;48483;44.640;7.494;2023-05-19T09:45:44;13.10;99.90
39957;DHT22;48483;44.640;7.494;2023-05-19T09:48:13;13.00;99.90
39957;DHT22;48483;44.640;7.494;2023-05-19T09:50:40;13.10;99.90
39957;DHT22;48483;44.640;7.494;2023-05-19T09:53:07;13.10;99.90
39957;DHT22;48483;44.640;7.494;2023-05-19T09:55:34;13.00;99.90
39957;DHT22;48483;44.640;7.494;2023-05-19T09:58:02;13.00;99.90
39957;DHT22;48483;44.640;7.494;2023-05-19T10:00:31;13.10;99.90
39957;DHT22;48483;44.640;7.494;2023-05-19T10:02:59;13.10;99.90
39957;DHT22;48483;44.640;7.494;2023-05-19T10:05:26;13.10;99.90
39957;DHT22;48483;44.640;7.494;2023-05-19T10:07:54;13.10;99.90
39957;DHT22;48483;44.640;7.494;2023-05-19T10:10:21;13.10;99.90
39957;DHT22;48483;44.640;7.494;2023-05-19T10:12:48;13.10;99.90
39957;DHT22;48483;44.640;7.494;2023-05-19T10:15:17;13.10;99.90
39957;DHT22;48483;44.640;7.494;2023-05-19T10:17:45;13.10;99.90
39957;DHT22;48483;44.640;7.494;2023-05-19T10:20:13;13.10;99.90
39957;DHT22;48483;44.640;7.494;2023-05-19T10:22:40;13.10;99.90
39957;DHT22;48483;44.640;7.494;2023-05-19T10:25:09;13.10;99.90
39957;DHT22;48483;44.640;7.494;2023-05-19T10:27:39;13.20;99.90
39957;DHT22;48483;44.640;7.494;2023-05-19T10:30:07;13.10;99.90
39957;DHT22;48483;44.640;7.494;2023-05-19T10:32:38;13.10;99.90
39957;DHT22;48483;44.640;7.494;2023-05-19T10:35:35;13.10;99.90
39957;DHT22;48483;44.640;7.494;2023-05-19T10:38:13;13.10;99.90
39957;DHT22;48483;44.640;7.494;2023-05-19T10:40:52;13.10;99.90
39957;DHT22;48483;44.640;7.494;2023-05-19T10:43:30;13.10;99.90
39957;DHT22;48483;44.640;7.494;2023-05-19T10:46:01;13.10;99.90
39957;DHT22;48483;44.640;7.494;2023-05-19T10:48:32;13.10;99.90
39957;DHT22;48483;44.640;7.494;2023-05-19T10:51:01;13.10;99.90
39957;DHT22;48483;44.640;7.494;2023-05-19T10:53:30;13.00;99.90
39957;DHT22;48483;44.640;7.494;2023-05-19T10:55:57;13.10;99.90
39957;DHT22;48483;44.640;7.494;2023-05-19T10:58:46;13.10;99.90
39957;DHT22;48483;44.640;7.494;2023-05-19T11:01:14;13.20;99.90
39957;DHT22;48483;44.640;7.494;2023-05-19T11:03:45;13.20;99.90
39957;DHT22;48483;44.640;7.494;2023-05-19T11:06:19;13.20;99.90
39957;DHT22;48483;44.640;7.494;2023-05-19T11:08:51;13.20;99.90
39957;DHT22;48483;44.640;7.494;2023-05-19T11:11:18;13.10;99.90
39957;DHT22;48483;44.640;7.494;2023-05-19T11:13:46;13.20;99.90
39957;DHT22;48483;44.640;7.494;2023-05-19T11:16:13;13.20;99.90
39957;DHT22;48483;44.640;7.494;2023-05-19T11:18:40;13.10;99.90
39957;DHT22;48483;44.640;7.494;2023-05-19T11:21:08;13.00;99.90
39957;DHT22;48483;44.640;7.494;2023-05-19T11:23:37;13.00;99.90
39957;DHT22;48483;44.640;7.494;2023-05-19T11:26:05;12.90;99.90
39957;DHT22;48483;44.640;7.494;2023-05-19T11:28:33;13.00;99.90
39957;DHT22;48483;44.640;7.494;2023-05-19T11:30:59;13.00;99.90
39957;DHT22;48483;44.640;7.494;2023-05-19T11:33:27;13.10;99.90
39957;DHT22;48483;44.640;7.494;2023-05-19T11:35:55;12.90;99.90
39957;DHT22;48483;44.640;7.494;2023-05-19T11:38:26;12.90;99.90
39957;DHT22;48483;44.640;7.494;2023-05-19T11:40:53;13.00;99.90
39957;DHT22;48483;44.640;7.494;2023-05-19T11:43:22;13.00;99.90
39957;DHT22;48483;44.640;7.494;2023-05-19T11:45:48;13.00;99.90
39957;DHT22;48483;44.640;7.494;2023-05-19T11:48:15;13.00;99.90
39957;DHT22;48483;44.640;7.494;2023-05-19T11:50:42;13.10;99.90
39957;DHT22;48483;44.640;7.494;2023-05-19T11:53:11;12.90;99.90
39957;DHT22;48483;44.640;7.494;2023-05-19T11:55:44;13.00;99.90
39957;DHT22;48483;44.640;7.494;2023-05-19T11:58:10;13.00;99.90
39957;DHT22;48483;44.640;7.494;2023-05-19T12:00:38;13.00;99.90
39957;DHT22;48483;44.640;7.494;2023-05-19T12:03:05;13.00;99.90
39957;DHT22;48483;44.640;7.494;2023-05-19T12:05:32;13.10;99.90
39957;DHT22;48483;44.640;7.494;2023-05-19T12:08:01;13.10;99.90
39957;DHT22;48483;44.640;7.494;2023-05-19T12:10:30;13.00;99.90
39957;DHT22;48483;44.640;7.494;2023-05-19T12:12:58;13.00;99.90
39957;DHT22;48483;44.640;7.494;2023-05-19T12:15:25;12.90;99.90
39957;DHT22;48483;44.640;7.494;2023-05-19T12:17:56;12.90;99.90
39957;DHT22;48483;44.640;7.494;2023-05-19T12:20:24;13.00;99.90
39957;DHT22;48483;44.640;7.494;2023-05-19T12:22:53;13.10;99.90
39957;DHT22;48483;44.640;7.494;2023-05-19T12:25:20;13.10;99.90
39957;DHT22;48483;44.640;7.494;2023-05-19T12:27:47;13.10;99.90
39957;DHT22;48483;44.640;7.494;2023-05-19T12:30:25;13.10;99.90
39957;DHT22;48483;44.640;7.494;2023-05-19T12:32:52;13.10;99.90
39957;DHT22;48483;44.640;7.494;2023-05-19T12:35:19;13.10;99.90
39957;DHT22;48483;44.640;7.494;2023-05-19T12:37:48;13.10;99.90
39957;DHT22;48483;44.640;7.494;2023-05-19T12:40:16;13.20;99.90
39957;DHT22;48483;44.640;7.494;2023-05-19T12:42:43;13.10;99.90
39957;DHT22;48483;44.640;7.494;2023-05-19T12:45:10;13.20;99.90
39957;DHT22;48483;44.640;7.494;2023-05-19T12:47:38;13.20;99.90
39957;DHT22;48483;44.640;7.494;2023-05-19T12:50:06;13.30;99.90
39957;DHT22;48483;44.640;7.494;2023-05-19T12:52:41;13.30;99.90
39957;DHT22;48483;44.640;7.494;2023-05-19T12:55:08;13.30;99.90
39957;DHT22;48483;44.640;7.494;2023-05-19T12:57:37;13.20;99.90
39957;DHT22;48483;44.640;7.494;2023-05-19T13:00:06;13.20;99.90
39957;DHT22;48483;44.640;7.494;2023-05-19T13:02:34;13.20;99.90
39957;DHT22;48483;44.640;7.494;2023-05-19T13:05:02;13.20;99.90
39957;DHT22;48483;44.640;7.494;2023-05-19T13:07:30;13.20;99.90
39957;DHT22;48483;44.640;7.494;2023-05-19T13:09:56;13.20;99.90
39957;DHT22;48483;44.640;7.494;2023-05-19T13:12:23;13.10;99.90
39957;DHT22;48483;44.640;7.494;2023-05-19T13:14:51;13.20;99.90
39957;DHT22;48483;44.640;7.494;2023-05-19T13:17:17;13.20;99.90
39957;DHT22;48483;44.640;7.494;2023-05-19T13:19:45;13.20;99.90
39957;DHT22;48483;44.640;7.494;2023-05-19T13:22:13;13.20;99.90
39957;DHT22;48483;44.640;7.494;2023-05-19T13:24:40;13.10;99.90
39957;DHT22;48483;44.640;7.494;2023-05-19T13:27:06;13.20;99.90
39957;DHT22;48483;44.640;7.494;2023-05-19T13:29:33;13.10;99.90
39957;DHT22;48483;44.640;7.494;2023-05-19T13:31:59;13.20;99.90
39957;DHT22;48483;44.640;7.494;2023-05-19T13:34:26;13.20;99.90
39957;DHT22;48483;44.640;7.494;2023-05-19T13:36:53;13.20;99.90
39957;DHT22;48483;44.640;7.494;2023-05-19T13:39:21;13.20;99.90
39957;DHT22;48483;44.640;7.494;2023-05-19T13:41:47;13.20;99.90
39957;DHT22;48483;44.640;7.494;2023-05-19T13:44:14;13.20;99.90
39957;DHT22;48483;44.640;7.494;2023-05-19T13:46:40;13.20;99.90
39957;DHT22;48483;44.640;7.494;2023-05-19T13:49:07;13.20;99.90
39957;DHT22;48483;44.640;7.494;2023-05-19T13:51:33;13.20;99.90
39957;DHT22;48483;44.640;7.494;2023-05-19T13:54:00;13.20;99.90
39957;DHT22;48483;44.640;7.494;2023-05-19T13:56:29;13.20;99.90
39957;DHT22;48483;44.640;7.494;2023-05-19T13:58:56;13.10;99.90
39957;DHT22;48483;44.640;7.494;2023-05-19T14:01:23;13.20;99.90
39957;DHT22;48483;44.640;7.494;2023-05-19T14:03:49;13.20;99.90
39957;DHT22;48483;44.640;7.494;2023-05-19T14:06:16;13.30;99.90
39957;DHT22;48483;44.640;7.494;2023-05-19T14:08:43;13.20;99.90
39957;DHT22;48483;44.640;7.494;2023-05-19T14:11:15;13.20;99.90
39957;DHT22;48483;44.640;7.494;2023-05-19T14:13:43;13.20;99.90
39957;DHT22;48483;44.640;7.494;2023-05-19T14:16:10;13.10;99.90
39957;DHT22;48483;44.640;7.494;2023-05-19T14:18:37;13.10;99.90
39957;DHT22;48483;44.640;7.494;2023-05-19T14:21:04;13.10;99.90
39957;DHT22;48483;44.640;7.494;2023-05-19T14:23:31;13.10;99.90
39957;DHT22;48483;44.640;7.494;2023-05-19T14:25:57;13.10;99.90
39957;DHT22;48483;44.640;7.494;2023-05-19T14:28:24;13.20;99.90
39957;DHT22;48483;44.640;7.494;2023-05-19T14:30:52;13.10;99.90
39957;DHT22;48483;44.640;7.494;2023-05-19T14:33:19;13.20;99.90
39957;DHT22;48483;44.640;7.494;2023-05-19T14:35:47;13.10;99.90
39957;DHT22;48483;44.640;7.494;2023-05-19T14:38:14;13.10;99.90
39957;DHT22;48483;44.640;7.494;2023-05-19T14:40:40;13.10;99.90
39957;DHT22;48483;44.640;7.494;2023-05-19T14:43:07;13.10;99.90
39957;DHT22;48483;44.640;7.494;2023-05-19T14:45:37;13.00;99.90
39957;DHT22;48483;44.640;7.494;2023-05-19T14:48:08;13.00;99.90
39957;DHT22;48483;44.640;7.494;2023-05-19T14:50:37;12.90;99.90
39957;DHT22;48483;44.640;7.494;2023-05-19T14:53:04;13.00;99.90
39957;DHT22;48483;44.640;7.494;2023-05-19T14:55:31;12.90;99.90
39957;DHT22;48483;44.640;7.494;2023-05-19T14:57:59;12.90;99.90
39957;DHT22;48483;44.640;7.494;2023-05-19T15:00:26;13.00;99.90
39957;DHT22;48483;44.640;7.494;2023-05-19T15:02:53;12.90;99.90
39957;DHT22;48483;44.640;7.494;2023-05-19T15:05:21;12.90;99.90
39957;DHT22;48483;44.640;7.494;2023-05-19T15:07:49;12.90;99.90
39957;DHT22;48483;44.640;7.494;2023-05-19T15:10:16;12.90;99.90
39957;DHT22;48483;44.640;7.494;2023-05-19T15:12:45;12.90;99.90
39957;DHT22;48483;44.640;7.494;2023-05-19T15:15:11;12.80;99.90
39957;DHT22;48483;44.640;7.494;2023-05-19T15:17:39;12.90;99.90
39957;DHT22;48483;44.640;7.494;2023-05-19T15:20:06;12.80;99.90
39957;DHT22;48483;44.640;7.494;2023-05-19T15:22:34;12.80;99.90
39957;DHT22;48483;44.640;7.494;2023-05-19T15:25:03;12.80;99.90
39957;DHT22;48483;44.640;7.494;2023-05-19T15:27:31;12.80;99.90
39957;DHT22;48483;44.640;7.494;2023-05-19T15:29:59;12.80;99.90
39957;DHT22;48483;44.640;7.494;2023-05-19T15:32:26;12.70;99.90
39957;DHT22;48483;44.640;7.494;2023-05-19T15:34:52;12.70;99.90
39957;DHT22;48483;44.640;7.494;2023-05-19T15:37:19;12.70;99.90